Time;durP1;ratioP1;P1;durP2;ratioP2;P2;SDS_P1;SDS_P2;PMS_P1;PMS_P2;Temp;Humidity;BMP_temperature;BMP_pressure;BME280_temperature;BME280_humidity;BME280_pressure;Samples;Min_cycle;Max_cycle;Signal;HPM_P1;HPM_P2
2023/01/07 00:01:14;;;;;;;17.25;11.75;;;;;;;11.22;48.83;101659.97;7395386;19;20491;-58
2023/01/07 00:03:40;;;;;;;20.13;12.73;;;;;;;11.01;49.56;101664.50;7393863;19;20007;-58
2023/01/07 00:06:09;;;;;;;17.42;11.88;;;;;;;11.07;49.15;101660.44;7394906;19;20483;-59
2023/01/07 00:08:37;;;;;;;18.98;12.00;;;;;;;11.01;49.28;101665.28;7397727;19;20033;-59
2023/01/07 00:11:04;;;;;;;19.45;12.93;;;;;;;11.15;49.28;101662.38;7396991;19;20009;-60
2023/01/07 00:13:30;;;;;;;18.13;12.32;;;;;;;11.15;49.23;101665.09;7393995;19;20038;-60
2023/01/07 00:15:58;;;;;;;19.48;12.20;;;;;;;11.30;49.05;101661.06;7396788;19;20006;-59
2023/01/07 00:18:24;;;;;;;20.33;12.63;;;;;;;11.18;49.45;101663.66;7396805;19;20007;-59
2023/01/07 00:20:49;;;;;;;19.35;12.60;;;;;;;11.22;49.47;101659.16;7396576;19;20058;-59
2023/01/07 00:23:15;;;;;;;18.92;12.63;;;;;;;11.29;49.23;101651.28;7392161;19;20641;-59
2023/01/07 00:25:41;;;;;;;20.08;13.57;;;;;;;11.30;49.21;101658.31;7393767;19;20074;-58
2023/01/07 00:28:07;;;;;;;18.20;12.00;;;;;;;11.21;49.27;101647.41;7396590;19;20002;-59
2023/01/07 00:30:33;;;;;;;17.77;12.82;;;;;;;10.96;50.03;101643.59;7395010;19;20481;-58
2023/01/07 00:33:06;;;;;;;17.48;12.15;;;;;;;11.03;49.84;101646.63;7393847;19;19999;-58
2023/01/07 00:35:35;;;;;;;19.35;12.38;;;;;;;11.10;50.06;101644.25;7396057;19;20014;-58
2023/01/07 00:38:02;;;;;;;19.45;13.13;;;;;;;11.21;49.95;101635.69;7395610;19;20074;-59
2023/01/07 00:40:32;;;;;;;18.98;12.48;;;;;;;11.18;50.02;101634.41;7396340;19;20054;-60
2023/01/07 00:43:04;;;;;;;18.70;13.25;;;;;;;11.28;49.86;101638.72;7393659;19;20002;-60
2023/01/07 00:45:32;;;;;;;20.83;13.15;;;;;;;11.31;50.20;101646.28;7395139;19;20002;-57
2023/01/07 00:47:59;;;;;;;19.15;13.50;;;;;;;11.28;50.08;101647.72;7395010;19;20003;-59
2023/01/07 00:50:33;;;;;;;18.70;12.52;;;;;;;11.32;50.27;101636.13;7393969;19;20003;-59
2023/01/07 00:52:58;;;;;;;18.45;12.65;;;;;;;11.27;50.35;101637.94;7392072;19;20061;-58
2023/01/07 00:55:25;;;;;;;20.25;13.65;;;;;;;11.30;50.59;101634.56;7396007;19;20455;-58
2023/01/07 00:57:52;;;;;;;19.42;13.38;;;;;;;11.33;50.63;101635.03;7395613;19;19995;-58
2023/01/07 01:00:19;;;;;;;19.25;13.35;;;;;;;11.29;50.84;101632.16;7394392;19;20005;-58
2023/01/07 01:02:46;;;;;;;20.55;14.02;;;;;;;11.44;50.57;101622.63;7391572;19;19997;-59
2023/01/07 01:05:12;;;;;;;18.58;13.23;;;;;;;11.53;50.45;101630.78;7394852;19;19998;-59
2023/01/07 01:07:38;;;;;;;20.45;14.20;;;;;;;11.55;50.46;101629.31;7393747;19;19998;-59
2023/01/07 01:10:07;;;;;;;20.27;14.55;;;;;;;11.56;50.41;101619.97;7394610;19;19994;-59
2023/01/07 01:12:34;;;;;;;20.80;14.85;;;;;;;11.61;50.51;101619.78;7389179;19;19998;-60
2023/01/07 01:15:01;;;;;;;20.85;15.02;;;;;;;11.46;51.17;101618.41;7393341;19;20451;-60
2023/01/07 01:17:26;;;;;;;20.30;14.48;;;;;;;11.42;51.44;101609.28;7392679;19;19998;-61
2023/01/07 01:19:52;;;;;;;22.20;15.40;;;;;;;11.47;51.34;101606.34;7391908;19;20014;-61
2023/01/07 01:22:18;;;;;;;21.75;15.43;;;;;;;11.58;51.34;101605.97;7392338;19;19991;-63
2023/01/07 01:24:44;;;;;;;20.92;15.27;;;;;;;11.57;51.32;101604.38;7391923;19;19994;-62
2023/01/07 01:27:09;;;;;;;21.52;15.23;;;;;;;11.54;51.35;101618.69;7392670;19;20009;-62
2023/01/07 01:29:35;;;;;;;19.42;14.55;;;;;;;11.58;51.16;101620.44;7394853;19;19995;-62
2023/01/07 01:32:01;;;;;;;22.15;15.40;;;;;;;11.55;51.51;101617.56;7395147;19;19994;-61
2023/01/07 01:34:27;;;;;;;19.77;14.55;;;;;;;11.54;51.47;101621.41;7393561;19;20030;-60
2023/01/07 01:36:52;;;;;;;21.48;16.05;;;;;;;11.60;51.58;101615.44;7394595;19;19999;-61
2023/01/07 01:39:19;;;;;;;21.40;16.45;;;;;;;11.64;51.41;101618.34;7394371;19;19999;-60
2023/01/07 01:41:46;;;;;;;21.20;15.52;;;;;;;11.71;51.62;101620.56;7393425;19;20014;-60
2023/01/07 01:44:39;;;;;;;23.40;17.00;;;;;;;11.52;52.20;101626.41;7391177;19;20006;-61
2023/01/07 01:47:13;;;;;;;20.60;16.13;;;;;;;11.72;51.73;101619.41;7393292;19;20014;-60
2023/01/07 01:49:43;;;;;;;22.10;16.58;;;;;;;11.73;51.79;101616.34;7393765;19;20003;-60
2023/01/07 01:52:12;;;;;;;21.85;16.15;;;;;;;11.42;52.83;101619.38;7394405;19;20002;-60
2023/01/07 01:54:40;;;;;;;22.45;16.02;;;;;;;11.55;52.54;101610.16;7390924;19;20006;-60
2023/01/07 01:57:08;;;;;;;20.70;15.73;;;;;;;11.73;52.29;101618.31;7393649;19;20018;-61
2023/01/07 01:59:38;;;;;;;20.83;14.38;;;;;;;11.82;52.16;101606.19;7393747;19;20011;-60
2023/01/07 02:02:05;;;;;;;21.17;15.85;;;;;;;11.80;52.14;101611.16;7393680;19;20003;-61
2023/01/07 02:04:32;;;;;;;20.30;15.23;;;;;;;11.71;52.73;101613.16;7391912;19;20005;-60
2023/01/07 02:07:03;;;;;;;20.02;15.45;;;;;;;11.89;52.16;101613.09;7392125;19;20324;-60
2023/01/07 02:09:29;;;;;;;20.30;15.73;;;;;;;11.94;51.98;101610.16;7392644;19;20040;-62
2023/01/07 02:12:15;;;;;;;21.95;17.02;;;;;;;11.65;53.31;101601.59;7391710;19;20418;-61
2023/01/07 02:14:49;;;;;;;21.60;16.10;;;;;;;11.88;52.72;101597.81;7392420;19;20475;-62
2023/01/07 02:17:24;;;;;;;19.50;15.40;;;;;;;11.89;52.68;101594.75;7393948;19;20039;-61
2023/01/07 02:20:22;;;;;;;20.85;16.40;;;;;;;11.93;52.67;101592.16;7394230;19;20003;-62
2023/01/07 02:23:00;;;;;;;19.67;14.65;;;;;;;12.09;52.37;101584.97;7391513;19;20333;-62
2023/01/07 02:25:44;;;;;;;19.63;15.55;;;;;;;12.13;52.48;101590.59;7392580;19;20380;-61
2023/01/07 02:28:34;;;;;;;18.60;14.15;;;;;;;12.15;52.07;101589.09;7393516;19;19999;-62
2023/01/07 02:31:22;;;;;;;20.60;15.00;;;;;;;12.03;52.97;101589.03;7393024;19;19998;-63
2023/01/07 02:33:53;;;;;;;19.73;15.27;;;;;;;12.12;52.51;101584.28;7388509;19;20470;-62
2023/01/07 02:36:45;;;;;;;19.60;14.52;;;;;;;12.02;53.10;101582.78;7393422;19;20017;-62
2023/01/07 02:39:17;;;;;;;20.30;15.43;;;;;;;12.01;52.94;101581.16;7391798;19;20079;-63
2023/01/07 02:42:06;;;;;;;20.42;15.27;;;;;;;12.02;53.16;101571.00;7392766;19;20006;-62
2023/01/07 02:44:51;;;;;;;19.00;14.80;;;;;;;12.04;53.18;101569.56;7391465;19;20014;-63
2023/01/07 02:47:24;;;;;;;22.13;15.80;;;;;;;12.13;52.85;101553.06;7391168;19;20006;-62
2023/01/07 02:49:50;;;;;;;21.57;16.00;;;;;;;12.13;52.58;101550.31;7392387;19;20086;-64
2023/01/07 02:52:26;;;;;;;19.13;15.40;;;;;;;12.16;52.75;101559.81;7390035;19;20259;-63
2023/01/07 02:55:07;;;;;;;18.63;13.98;;;;;;;12.26;52.61;101558.59;7390338;19;20003;-63
2023/01/07 02:57:59;;;;;;;18.98;14.70;;;;;;;12.19;52.76;101557.22;7392103;19;20010;-62
2023/01/07 03:00:47;;;;;;;21.00;15.40;;;;;;;12.27;52.52;101554.72;7391192;19;19998;-63
2023/01/07 03:03:38;;;;;;;19.35;14.77;;;;;;;12.11;53.26;101552.59;7390058;19;20459;-62
2023/01/07 03:06:41;;;;;;;18.85;14.55;;;;;;;12.04;53.55;101557.81;7390542;19;20012;-62
2023/01/07 03:09:07;;;;;;;18.00;14.02;;;;;;;12.02;53.69;101552.69;7392269;19;19999;-62
2023/01/07 03:11:41;;;;;;;17.58;14.18;;;;;;;12.25;52.95;101544.13;7391798;19;19991;-62
2023/01/07 03:14:47;;;;;;;17.98;13.93;;;;;;;12.22;53.00;101542.88;7388699;19;20333;-62
2023/01/07 03:17:19;;;;;;;16.95;13.63;;;;;;;12.05;53.63;101540.25;7390534;19;20007;-62
2023/01/07 03:19:49;;;;;;;17.67;13.40;;;;;;;12.17;53.06;101537.59;7391688;19;20002;-61
2023/01/07 03:22:19;;;;;;;17.77;13.10;;;;;;;12.35;52.72;101534.69;7389228;19;19998;-63
2023/01/07 03:24:49;;;;;;;17.25;14.02;;;;;;;12.18;53.18;101543.84;7391180;19;20090;-61
2023/01/07 03:27:16;;;;;;;17.55;13.32;;;;;;;12.16;53.44;101540.66;7390650;19;20003;-61
2023/01/07 03:29:42;;;;;;;17.02;13.07;;;;;;;12.02;53.62;101533.53;7391397;19;20003;-61
2023/01/07 03:32:14;;;;;;;16.15;12.50;;;;;;;12.29;53.28;101536.84;7390054;19;20005;-60
2023/01/07 03:34:41;;;;;;;16.65;13.18;;;;;;;12.31;53.40;101534.56;7390639;19;20036;-61
2023/01/07 03:37:11;;;;;;;17.58;13.32;;;;;;;12.39;53.16;101530.13;7391305;19;20020;-61
2023/01/07 03:39:39;;;;;;;16.67;12.75;;;;;;;12.35;53.17;101531.97;7391135;19;20493;-61
2023/01/07 03:44:53;;;;;;;16.00;11.93;;;;;;;12.20;53.76;101519.69;7391284;19;20055;-61
2023/01/07 03:47:20;;;;;;;18.00;13.25;;;;;;;12.17;53.75;101523.91;7388429;19;19995;-62
2023/01/07 03:49:46;;;;;;;15.95;11.75;;;;;;;12.09;54.15;101527.50;7390865;19;19995;-61
2023/01/07 03:52:11;;;;;;;15.90;12.82;;;;;;;12.11;54.12;101519.75;7390518;19;20018;-61
2023/01/07 03:54:37;;;;;;;16.27;12.25;;;;;;;12.01;54.54;101528.38;7387879;19;20002;-61
2023/01/07 03:57:03;;;;;;;16.38;12.52;;;;;;;12.19;53.87;101524.38;7390655;19;20018;-61
2023/01/07 03:59:29;;;;;;;17.30;12.90;;;;;;;12.00;54.66;101529.50;7390624;19;20270;-62
2023/01/07 04:01:55;;;;;;;16.15;12.73;;;;;;;12.15;54.25;101523.41;7390421;19;20020;-61
2023/01/07 04:04:20;;;;;;;15.10;11.15;;;;;;;12.17;54.02;101518.44;7385157;19;20003;-61
2023/01/07 04:06:47;;;;;;;15.70;11.45;;;;;;;12.17;54.37;101518.44;7388506;19;20003;-62
2023/01/07 04:09:14;;;;;;;14.45;10.80;;;;;;;12.17;54.07;101518.44;7390486;19;20074;-59
2023/01/07 04:11:40;;;;;;;14.40;10.50;;;;;;;12.26;54.10;101515.63;7390404;19;20010;-59
2023/01/07 04:14:06;;;;;;;14.55;10.80;;;;;;;12.21;54.24;101513.09;7385175;19;20006;-60
2023/01/07 04:16:32;;;;;;;13.80;10.57;;;;;;;12.33;54.10;101513.13;7389764;19;20324;-60
2023/01/07 04:18:57;;;;;;;15.35;11.48;;;;;;;12.22;54.53;101512.75;7389919;19;20009;-60
2023/01/07 04:21:23;;;;;;;13.32;10.20;;;;;;;12.33;54.17;101509.59;7389818;19;19999;-60
2023/01/07 04:23:49;;;;;;;13.68;10.52;;;;;;;12.30;54.09;101502.84;7384981;19;19994;-60
2023/01/07 04:26:14;;;;;;;13.75;10.50;;;;;;;12.34;53.90;101505.72;7388155;19;20066;-61
2023/01/07 04:28:40;;;;;;;13.57;10.90;;;;;;;12.16;54.83;101499.63;7389455;19;20006;-61
2023/01/07 04:31:06;;;;;;;13.73;10.82;;;;;;;12.03;55.18;101496.78;7389256;19;20023;-59
2023/01/07 04:33:32;;;;;;;15.13;11.45;;;;;;;12.20;54.73;101501.31;7386839;19;19999;-61
2023/01/07 04:35:58;;;;;;;14.73;11.02;;;;;;;12.27;54.61;101500.00;7395529;19;20020;-59
2023/01/07 04:38:24;;;;;;;16.02;11.30;;;;;;;12.30;54.28;101493.84;7396001;19;20001;-60
2023/01/07 04:40:49;;;;;;;14.20;10.50;;;;;;;12.45;54.16;101490.47;7396590;19;20016;-60
2023/01/07 04:43:15;;;;;;;13.23;10.73;;;;;;;12.24;54.50;101493.25;7392120;19;20011;-60
2023/01/07 04:45:41;;;;;;;14.90;10.65;;;;;;;12.35;54.56;101493.63;7396252;19;20041;-61
2023/01/07 04:48:07;;;;;;;15.45;11.48;;;;;;;12.34;54.90;101494.75;7394158;19;20036;-60
2023/01/07 04:50:33;;;;;;;13.73;10.75;;;;;;;12.35;54.72;101486.22;7396340;19;20420;-60
2023/01/07 04:52:58;;;;;;;14.35;10.70;;;;;;;12.31;54.90;101487.25;7393124;19;20018;-60
2023/01/07 04:55:24;;;;;;;14.93;11.25;;;;;;;12.31;54.90;101492.72;7393550;19;19998;-61
2023/01/07 04:57:50;;;;;;;13.30;10.90;;;;;;;12.27;54.94;101484.34;7395480;19;20006;-61
2023/01/07 05:00:16;;;;;;;14.23;10.80;;;;;;;12.35;54.82;101482.69;7395115;19;20321;-60
2023/01/07 05:02:41;;;;;;;14.73;11.07;;;;;;;12.37;54.69;101477.66;7393012;19;19999;-59
2023/01/07 05:05:09;;;;;;;15.43;10.93;;;;;;;12.50;54.41;101481.25;7396453;19;19999;-61
2023/01/07 05:07:34;;;;;;;13.07;10.05;;;;;;;12.43;54.59;101479.06;7395912;19;19999;-61
2023/01/07 05:10:00;;;;;;;14.55;11.02;;;;;;;12.24;54.85;101482.31;7396085;19;20301;-61
2023/01/07 05:12:26;;;;;;;14.68;10.93;;;;;;;12.20;55.03;101478.63;7395934;19;20026;-61
2023/01/07 05:14:52;;;;;;;14.73;11.50;;;;;;;12.01;55.55;101481.88;7398161;19;19995;-60
2023/01/07 05:17:17;;;;;;;14.95;11.05;;;;;;;12.32;54.84;101469.66;7395771;19;19995;-59
2023/01/07 05:19:43;;;;;;;13.90;11.10;;;;;;;12.34;54.75;101472.88;7397536;19;20010;-62
2023/01/07 05:22:09;;;;;;;14.27;11.65;;;;;;;12.45;54.57;101476.78;7397365;19;19991;-59
2023/01/07 05:24:35;;;;;;;14.07;10.80;;;;;;;12.50;54.13;101462.88;7395939;19;20009;-61
2023/01/07 05:27:01;;;;;;;15.45;11.35;;;;;;;12.46;54.23;101461.97;7395000;19;20003;-60
2023/01/07 05:29:26;;;;;;;14.27;11.05;;;;;;;12.49;54.44;101463.22;7397118;19;19995;-59
2023/01/07 05:31:52;;;;;;;14.30;10.82;;;;;;;12.58;53.94;101462.00;7397421;19;20002;-62
2023/01/07 05:34:18;;;;;;;14.52;11.32;;;;;;;12.39;54.15;101458.97;7393151;19;20342;-60
2023/01/07 05:36:44;;;;;;;14.70;11.80;;;;;;;12.38;54.39;101460.91;7396591;19;20354;-60
2023/01/07 05:39:10;;;;;;;15.00;10.68;;;;;;;12.50;54.23;101465.63;7396837;19;19991;-64
2023/01/07 05:41:35;;;;;;;14.60;11.25;;;;;;;12.43;54.28;101462.63;7395153;19;20465;-61
2023/01/07 05:44:01;;;;;;;14.90;11.43;;;;;;;12.50;54.00;101470.31;7393149;19;19999;-60
2023/01/07 05:46:27;;;;;;;15.25;11.68;;;;;;;12.51;53.91;101467.22;7393933;19;20148;-60
2023/01/07 05:48:53;;;;;;;14.07;11.32;;;;;;;12.48;54.02;101470.63;7397637;19;20001;-61
2023/01/07 05:51:19;;;;;;;13.63;10.50;;;;;;;12.60;53.63;101464.38;7394735;19;20001;-60
2023/01/07 05:53:45;;;;;;;13.48;10.82;;;;;;;12.47;53.95;101469.03;7389282;19;21020;-61
2023/01/07 05:56:10;;;;;;;14.15;11.30;;;;;;;12.64;53.50;101469.97;7393822;19;20013;-61
2023/01/07 05:58:36;;;;;;;15.45;11.20;;;;;;;12.65;53.64;101466.91;7393738;19;20351;-61
2023/01/07 06:01:02;;;;;;;14.32;11.18;;;;;;;12.66;53.54;101468.53;7388173;19;20396;-60
2023/01/07 06:03:28;;;;;;;13.15;10.45;;;;;;;12.66;53.49;101468.53;7389602;19;20728;-60
2023/01/07 06:05:53;;;;;;;13.35;10.10;;;;;;;12.62;53.53;101466.78;7393121;19;20030;-60
2023/01/07 06:08:19;;;;;;;14.70;11.07;;;;;;;12.66;53.35;101471.25;7392901;19;19998;-60
2023/01/07 06:10:52;;;;;;;15.73;11.30;;;;;;;12.74;53.09;101466.81;7393688;19;20026;-61
2023/01/07 06:13:17;;;;;;;13.35;10.35;;;;;;;12.76;53.08;101472.75;7390535;19;20018;-60
2023/01/07 06:15:43;;;;;;;15.05;11.25;;;;;;;12.83;52.93;101481.22;7393520;19;20471;-59
2023/01/07 06:18:09;;;;;;;14.70;10.80;;;;;;;12.86;52.77;101472.31;7392444;19;20407;-60
2023/01/07 06:20:35;;;;;;;15.18;11.35;;;;;;;12.68;53.05;101468.97;7393288;19;20058;-61
2023/01/07 06:23:03;;;;;;;13.40;10.88;;;;;;;12.64;53.33;101475.47;7389183;19;20054;-59
2023/01/07 06:25:29;;;;;;;14.15;10.65;;;;;;;12.73;52.95;101476.97;7393285;19;20016;-60
2023/01/07 06:27:56;;;;;;;12.40;10.20;;;;;;;12.65;52.94;101471.59;7392887;19;20003;-60
2023/01/07 06:30:22;;;;;;;17.42;11.48;;;;;;;12.58;53.38;101470.19;7392593;19;19998;-60
2023/01/07 06:32:48;;;;;;;13.98;10.88;;;;;;;12.60;53.26;101470.66;7391042;19;20557;-61
2023/01/07 06:35:14;;;;;;;15.88;11.40;;;;;;;12.51;53.44;101461.75;7392650;19;20470;-60
2023/01/07 06:37:40;;;;;;;14.98;11.02;;;;;;;12.55;53.29;101467.34;7392492;19;20081;-60
2023/01/07 06:40:06;;;;;;;14.10;10.55;;;;;;;12.72;52.71;101460.88;7389830;19;20002;-60
2023/01/07 06:42:32;;;;;;;13.70;10.07;;;;;;;12.76;52.74;101456.34;7390362;19;19999;-59
2023/01/07 06:44:58;;;;;;;14.27;10.70;;;;;;;12.79;52.68;101452.88;7392476;19;20380;-60
2023/01/07 06:47:24;;;;;;;14.50;10.85;;;;;;;12.59;52.94;101455.38;7390543;19;20009;-60
2023/01/07 06:49:51;;;;;;;14.50;10.57;;;;;;;12.51;53.31;101453.53;7392062;19;20342;-61
2023/01/07 06:52:16;;;;;;;14.50;9.93;;;;;;;12.69;52.58;101456.06;7390470;19;20507;-60
2023/01/07 06:54:42;;;;;;;12.60;9.63;;;;;;;12.85;52.09;101456.22;7389165;19;20002;-60
2023/01/07 06:57:08;;;;;;;13.43;9.57;;;;;;;12.59;52.92;101460.84;7389657;19;20015;-60
2023/01/07 06:59:34;;;;;;;15.75;10.75;;;;;;;12.69;52.57;101461.56;7392201;19;20304;-59
2023/01/07 07:01:59;;;;;;;14.20;9.88;;;;;;;12.63;52.88;101462.94;7390824;19;20007;-60
2023/01/07 07:04:25;;;;;;;13.35;10.07;;;;;;;12.71;52.56;101457.34;7391789;19;20062;-60
2023/01/07 07:06:51;;;;;;;14.35;10.88;;;;;;;12.73;52.38;101457.78;7388597;19;20336;-61
2023/01/07 07:09:16;;;;;;;14.68;10.20;;;;;;;12.62;52.79;101450.38;7390970;19;20444;-60
2023/01/07 07:11:42;;;;;;;13.48;9.98;;;;;;;12.72;52.37;101447.19;7390607;19;19998;-58
2023/01/07 07:14:08;;;;;;;14.48;10.50;;;;;;;12.66;52.47;101448.53;7388180;19;20023;-57
2023/01/07 07:16:34;;;;;;;14.48;9.98;;;;;;;12.75;52.38;101452.78;7390172;19;20470;-57
2023/01/07 07:19:00;;;;;;;14.10;10.18;;;;;;;12.76;52.33;101450.84;7391579;19;20185;-57
2023/01/07 07:21:25;;;;;;;12.90;9.70;;;;;;;12.75;52.40;101443.75;7390525;19;20006;-57
2023/01/07 07:23:51;;;;;;;14.93;10.30;;;;;;;12.88;52.07;101452.84;7388673;19;20356;-58
2023/01/07 07:26:17;;;;;;;14.25;10.75;;;;;;;12.77;52.31;101452.44;7388673;19;20440;-57
2023/01/07 07:28:43;;;;;;;13.85;10.20;;;;;;;12.79;52.11;101450.16;7390149;19;20018;-58
2023/01/07 07:31:10;;;;;;;16.17;10.15;;;;;;;12.71;52.48;101448.34;7388713;19;19999;-56
2023/01/07 07:33:35;;;;;;;16.20;10.80;;;;;;;12.75;52.55;101446.50;7387993;19;20002;-56
2023/01/07 07:36:01;;;;;;;14.98;10.60;;;;;;;12.82;52.12;101448.69;7390940;19;19999;-56
2023/01/07 07:38:27;;;;;;;14.80;10.65;;;;;;;12.79;52.20;101444.66;7390187;19;20387;-56
2023/01/07 07:40:53;;;;;;;14.32;10.10;;;;;;;12.65;52.69;101442.25;7390355;19;20002;-56
2023/01/07 07:43:20;;;;;;;15.07;9.95;;;;;;;12.68;52.29;101446.28;7387714;19;20102;-56
2023/01/07 07:45:45;;;;;;;15.80;10.55;;;;;;;12.67;52.37;101437.22;7389952;19;19999;-57
2023/01/07 07:48:13;;;;;;;15.30;9.98;;;;;;;12.67;52.24;101439.97;7389432;19;20104;-57
2023/01/07 07:50:40;;;;;;;15.38;10.68;;;;;;;12.53;52.70;101440.31;7390849;19;19999;-57
2023/01/07 07:53:08;;;;;;;14.20;10.18;;;;;;;12.63;52.25;101444.53;7386136;19;20014;-58
2023/01/07 07:55:38;;;;;;;14.10;10.38;;;;;;;12.74;52.02;101442.97;7386620;19;20009;-57
2023/01/07 07:58:04;;;;;;;15.93;10.13;;;;;;;12.73;52.07;101444.09;7390865;19;20542;-56
2023/01/07 08:00:30;;;;;;;14.05;9.35;;;;;;;12.69;52.04;101434.16;7389621;19;19995;-57
2023/01/07 08:02:57;;;;;;;15.10;9.68;;;;;;;12.71;51.90;101437.38;7387531;19;20110;-56
2023/01/07 08:05:23;;;;;;;13.70;9.10;;;;;;;12.63;51.99;101436.34;7388217;19;19998;-57
2023/01/07 08:07:49;;;;;;;12.48;8.10;;;;;;;12.65;51.94;101439.53;7393971;19;20029;-57
2023/01/07 08:10:15;;;;;;;13.93;9.07;;;;;;;12.67;51.83;101430.97;7396815;19;20031;-57
2023/01/07 08:12:41;;;;;;;12.75;8.13;;;;;;;12.66;51.69;101434.84;7395179;19;19994;-58
2023/01/07 08:15:07;;;;;;;13.23;9.10;;;;;;;12.73;51.47;101429.63;7397134;19;20002;-58
2023/01/07 08:17:35;;;;;;;13.02;8.88;;;;;;;12.75;51.55;101438.28;7397278;19;20015;-57
2023/01/07 08:20:01;;;;;;;12.48;8.52;;;;;;;12.75;51.47;101433.59;7396204;19;20003;-58
2023/01/07 08:22:27;;;;;;;12.77;8.18;;;;;;;12.72;51.63;101436.22;7395588;19;20106;-57
2023/01/07 08:24:53;;;;;;;12.68;8.02;;;;;;;12.73;51.53;101435.09;7396005;19;20002;-58
2023/01/07 08:27:18;;;;;;;12.50;7.53;;;;;;;12.80;51.44;101429.84;7394406;19;20309;-57
2023/01/07 08:29:44;;;;;;;11.38;7.63;;;;;;;12.89;51.11;101436.06;7397083;19;20325;-57
2023/01/07 08:32:10;;;;;;;12.20;7.78;;;;;;;12.68;51.49;101432.56;7395804;19;19998;-57
2023/01/07 08:34:36;;;;;;;10.90;7.35;;;;;;;12.88;51.00;101436.41;7395859;19;20006;-56
2023/01/07 08:37:02;;;;;;;11.32;6.90;;;;;;;12.86;51.01;101431.22;7394186;19;19994;-57
2023/01/07 08:39:33;;;;;;;10.18;6.93;;;;;;;12.63;51.52;101432.81;7396156;19;20402;-56
2023/01/07 08:41:59;;;;;;;10.40;6.38;;;;;;;12.81;51.13;101427.91;7396471;19;20014;-57
2023/01/07 08:44:25;;;;;;;10.43;6.65;;;;;;;12.92;50.84;101429.88;7394233;19;20022;-57
2023/01/07 08:46:52;;;;;;;11.90;7.15;;;;;;;12.75;51.02;101428.13;7393987;19;19994;-57
2023/01/07 08:49:18;;;;;;;10.73;6.82;;;;;;;12.89;50.74;101427.00;7396275;19;20028;-57
2023/01/07 08:51:43;;;;;;;10.63;6.53;;;;;;;12.90;50.58;101421.19;7395528;19;19995;-56
2023/01/07 08:54:09;;;;;;;10.50;6.40;;;;;;;12.92;50.62;101424.38;7395167;19;20035;-57
2023/01/07 08:56:35;;;;;;;11.07;6.40;;;;;;;12.82;51.11;101433.03;7396611;19;20066;-57
2023/01/07 08:59:00;;;;;;;11.68;6.75;;;;;;;12.80;50.64;101418.88;7396242;19;20003;-57
2023/01/07 09:01:26;;;;;;;10.70;6.32;;;;;;;12.75;50.92;101414.44;7395267;19;19999;-57
2023/01/07 09:03:52;;;;;;;10.23;6.25;;;;;;;12.52;51.21;101416.78;7390077;19;19995;-57
2023/01/07 09:06:18;;;;;;;9.57;6.07;;;;;;;12.62;51.03;101420.25;7393816;19;20027;-57
2023/01/07 09:08:43;;;;;;;8.65;5.15;;;;;;;12.47;51.39;101414.28;7395017;19;20006;-56
2023/01/07 09:11:09;;;;;;;9.57;5.22;;;;;;;12.59;51.10;101414.31;7395526;19;20391;-57
2023/01/07 09:13:35;;;;;;;8.43;5.03;;;;;;;12.53;51.00;101412.13;7392701;19;20479;-57
2023/01/07 09:16:01;;;;;;;7.82;4.53;;;;;;;12.58;51.04;101417.38;7393281;19;20003;-56
2023/01/07 09:18:27;;;;;;;9.95;5.03;;;;;;;12.68;50.72;101407.94;7394496;19;20005;-58
2023/01/07 09:20:52;;;;;;;7.78;4.40;;;;;;;12.62;50.66;101417.50;7393587;19;20455;-58
2023/01/07 09:23:18;;;;;;;9.13;4.20;;;;;;;12.50;51.03;101405.38;7392096;19;19999;-58
2023/01/07 09:25:44;;;;;;;9.60;4.70;;;;;;;12.65;50.79;101405.88;7394382;19;20006;-58
2023/01/07 09:28:10;;;;;;;7.38;4.15;;;;;;;12.42;50.99;101409.00;7394130;19;20017;-58
2023/01/07 09:30:36;;;;;;;7.63;4.00;;;;;;;12.50;50.75;101405.38;7394088;19;20054;-58
2023/01/07 09:33:02;;;;;;;6.88;3.85;;;;;;;12.34;51.09;101401.69;7392174;19;20034;-58
2023/01/07 09:35:28;;;;;;;6.60;3.70;;;;;;;12.48;50.70;101407.66;7394022;19;20003;-60
2023/01/07 09:37:54;;;;;;;6.55;3.40;;;;;;;12.52;50.59;101408.56;7394686;19;20352;-57
2023/01/07 09:40:33;;;;;;;7.43;3.47;;;;;;;12.44;50.31;101403.19;7392042;19;20028;-58
2023/01/07 09:43:03;;;;;;;6.20;3.13;;;;;;;12.37;50.80;101401.03;7391821;19;20003;-58
2023/01/07 09:45:40;;;;;;;5.28;3.10;;;;;;;12.75;49.91;101394.47;7393206;19;20384;-57
2023/01/07 09:48:28;;;;;;;5.75;2.70;;;;;;;12.51;50.09;101390.56;7390918;19;20003;-58
2023/01/07 09:51:01;;;;;;;6.18;2.72;;;;;;;12.53;50.20;101393.75;7392306;19;20006;-59
2023/01/07 09:53:34;;;;;;;5.07;2.33;;;;;;;12.65;49.98;101390.22;7391627;19;20007;-60
2023/01/07 09:56:03;;;;;;;4.15;2.05;;;;;;;12.65;49.77;101387.50;7390248;19;19995;-59
2023/01/07 09:58:29;;;;;;;6.05;2.50;;;;;;;12.62;49.92;101384.63;7394197;19;20006;-58
2023/01/07 10:01:06;;;;;;;4.38;2.28;;;;;;;12.68;49.24;101377.81;7392057;19;20078;-58
2023/01/07 10:03:51;;;;;;;6.18;2.17;;;;;;;12.33;49.85;101372.75;7391590;19;20066;-57
2023/01/07 10:06:30;;;;;;;4.15;2.40;;;;;;;12.44;49.98;101376.66;7392969;19;20002;-58
2023/01/07 10:09:14;;;;;;;5.10;2.28;;;;;;;12.77;49.21;101375.72;7391441;19;20003;-59
2023/01/07 10:11:54;;;;;;;4.68;2.03;;;;;;;12.73;49.14;101370.16;7392338;19;19999;-59
2023/01/07 10:14:36;;;;;;;3.75;1.80;;;;;;;12.80;49.19;101372.31;7391003;19;20015;-58
2023/01/07 10:17:42;;;;;;;5.65;2.00;;;;;;;12.75;48.70;101367.84;7392997;19;19998;-59
2023/01/07 10:20:11;;;;;;;6.70;2.22;;;;;;;12.90;49.02;101363.66;7391534;19;20021;-59
2023/01/07 10:23:08;;;;;;;3.10;1.75;;;;;;;12.86;48.76;101362.75;7391391;19;20010;-59
2023/01/07 10:25:41;;;;;;;4.13;1.42;;;;;;;12.81;48.70;101360.22;7392408;19;20002;-60
2023/01/07 10:28:22;;;;;;;5.13;1.90;;;;;;;12.88;48.89;101360.47;7392890;19;20006;-59
2023/01/07 10:30:52;;;;;;;2.90;1.60;;;;;;;12.74;49.04;101362.72;7392843;19;19999;-59
2023/01/07 10:33:25;;;;;;;2.92;1.67;;;;;;;13.02;48.70;101353.84;7390759;19;20006;-59
2023/01/07 10:36:09;;;;;;;3.15;1.45;;;;;;;13.05;47.88;101347.69;7392615;19;20018;-60
2023/01/07 10:38:40;;;;;;;4.32;1.70;;;;;;;13.12;48.20;101348.66;7392964;19;20027;-60
2023/01/07 10:41:21;;;;;;;3.15;1.77;;;;;;;13.02;47.86;101348.38;7392205;19;20003;-61
2023/01/07 10:43:50;;;;;;;4.15;1.58;;;;;;;13.08;48.05;101336.81;7388132;19;20600;-59
2023/01/07 10:46:23;;;;;;;4.43;1.60;;;;;;;13.10;48.17;101339.22;7391005;19;20019;-60
2023/01/07 10:48:59;;;;;;;4.63;1.50;;;;;;;13.02;48.15;101327.22;7392915;19;20002;-59
2023/01/07 10:51:37;;;;;;;2.47;1.55;;;;;;;13.07;47.94;101321.50;7391802;19;19999;-60
2023/01/07 10:54:29;;;;;;;3.45;1.42;;;;;;;13.10;47.58;101322.78;7389867;19;20006;-59
2023/01/07 10:57:02;;;;;;;2.17;1.35;;;;;;;13.23;47.78;101313.38;7392331;19;20485;-61
2023/01/07 10:59:28;;;;;;;2.45;1.25;;;;;;;13.17;47.73;101317.50;7392394;19;20002;-60
2023/01/07 11:01:57;;;;;;;3.42;1.40;;;;;;;13.22;47.51;101314.50;7388567;19;20011;-62
2023/01/07 11:04:23;;;;;;;3.15;1.40;;;;;;;13.29;47.40;101312.00;7387314;19;20006;-61
2023/01/07 11:07:03;;;;;;;2.65;1.50;;;;;;;13.30;46.78;101305.34;7390276;19;20005;-62
2023/01/07 11:09:30;;;;;;;2.88;1.42;;;;;;;13.00;47.82;101301.34;7392413;19;20493;-61
2023/01/07 11:12:01;;;;;;;3.28;1.50;;;;;;;13.15;47.42;101293.16;7391400;19;20006;-61
2023/01/07 11:14:32;;;;;;;3.13;1.60;;;;;;;13.27;47.44;101289.59;7391092;19;19999;-59
2023/01/07 11:17:14;;;;;;;2.88;1.50;;;;;;;13.37;46.96;101279.28;7391524;19;20009;-60
2023/01/07 11:19:50;;;;;;;4.00;1.58;;;;;;;13.26;47.02;101277.06;7391273;19;20006;-59
2023/01/07 11:22:25;;;;;;;5.03;1.70;;;;;;;13.17;47.37;101273.63;7391151;19;20026;-58
2023/01/07 11:24:55;;;;;;;2.55;1.50;;;;;;;13.32;46.96;101272.91;7392155;19;20003;-59
2023/01/07 11:27:24;;;;;;;2.58;1.48;;;;;;;13.13;47.62;101278.25;7388259;19;20002;-59